Pagina principală
METAR-TAF:

METAR-TAF

Aeroporturi :

Albury, Australia

Latitudine: 36-04-06S, longitudine: 146-57-30E, elevație: 164 m

Observații meteo curente

Raportul a fost făcut în urmă cu 23 de minute, la 09:00 UTC
Vânt 3 kt de la Nord
Temperatură 13°C
Umiditate 77%
Presiune 1022 hPa
Vizibilitate de 10 km sau mai mult
Total acoperit la o înălțime de 7700 picior

METAR: YMAY 260900Z AUTO 35003KT 9999 // OVC077 13/09 Q1022

Ora: 19:23 (09:23 UTC)


TAF: lipsă

Observații și prognoze meteo pentru peste 4.000 de aeroporturi (rapoarte METAR și TAF).

Stațiile disponibile sunt reprezentate pe hartă prin puncte galbene și roșii.

Țineți indicatorul mouse-ului pe punctul dorit pentru a vedea denumirea stației.

Apoi, faceți clic pentru a vedea observațiile și prognozele meteorologice.

Pentru a schimba harta: Pentru mărire, faceți clic pe butoanele verzi cu cruce neagră; pentru micșorare, pe butonul verde cu o liniuță; pentru hărți învecinate, pe săgețile verzi.


METAR-TAF: